Airfield :
LOGIN :

Register | Disclaimer

   EN    FR    IT 

 










Legend :    VFR   Marginal VFR   IFR   Intensive IFR   Very Intensive IFR
Visi :
Ceiling :
>= 8 km
>= 3000ft
5 to 8 km
1000 to 3000 ft
1500m to 5 km
500 to 1000 ft
800 to 1500m
200 to 500 ft
< 800m
< 200 ft
Symbols :   Thunderstorms  Fog  Heavy snow  Heavy precipitations  Wind > 20 kt
SIGMETs :     Misc.  Thunderstorms  Icing  Turbulence  Mountain Waves  Volcanic Ashes







- Airport Elevation : 1306 ft
- IATA code : ACH


LSZR - Alten Rhein

CURRENT METAR :
  • 230250Z AUTO VRB02KT 9999 OVC060 BKN080 12/10 Q1018

EXPIRED METARs :
  • 230220Z AUTO VRB01KT 9999 BKN050 13/10 Q1018
  • 230150Z AUTO VRB01KT 9999 OVC060 13/10 Q1018
  • 230120Z AUTO VRB01KT 9999 OVC060 BKN100 13/10 Q1018
  • 230050Z AUTO VRB01KT 9999 FEW080 12/11 Q1018
  • 230020Z AUTO VRB02KT 9999 BKN070 13/11 Q1018
  • 222350Z AUTO 20002KT 9999 OVC070 13/12 Q1018

TAF TAF LSZR
Valid from the 23 at 03:00 until the 23 at 12:00 UTC


230225Z 2303/2312 VRB03KT 9999 BKN060
BECMG 2306/2309 CAVOK
BECMG 2310/2312 32010KT 9999 FEW060
ATIS : +41 71 858 51 66
No reported NOTAMs for that airfield.



MET'MAP, your aeronautical weather chart ! - Copyright ORBIFLY December 2007 - Disclaimer

ORBIFLY MET'MAP TEAM :

Programming & Development : Alexandra Zaïnal
Concept & Development : Baudouin d'Aumeries
Co-Development & Prog : Marc-Olivier Méhu
Technical & hardware support : Manuel Goepfert

Contact : metmap@orbifly.com




SOURCES & CREDITS :

   NOAA